createdAt,value
2018-12-31T00:05:46.175Z,100229.38
2018-12-31T00:08:12.331Z,100212.11
2018-12-31T00:10:38.491Z,100218.43
2018-12-31T00:13:04.796Z,100221.97
2018-12-31T00:15:30.956Z,100222.79
2018-12-31T00:17:57.109Z,100230.35
2018-12-31T00:20:23.296Z,100222.11
2018-12-31T00:22:49.556Z,100227.95
2018-12-31T00:25:15.716Z,100219.38
2018-12-31T00:27:41.903Z,100221.94
2018-12-31T00:30:08.150Z,100222.54
2018-12-31T00:32:34.304Z,100216.24
2018-12-31T00:35:00.709Z,100222.05
2018-12-31T00:37:26.862Z,100218.66
2018-12-31T00:39:53.025Z,100217.95
2018-12-31T00:42:19.218Z,100217.56
2018-12-31T00:44:45.383Z,100218.38
2018-12-31T00:47:11.526Z,100211.00
2018-12-31T00:49:37.710Z,100219.02
2018-12-31T00:52:03.872Z,100214.98
2018-12-31T00:54:30.132Z,100214.06
2018-12-31T00:56:56.326Z,100216.93
2018-12-31T00:59:22.484Z,100213.23
2018-12-31T01:01:48.631Z,100209.08
2018-12-31T01:04:14.831Z,100210.32
2018-12-31T01:06:46.847Z,100211.29
2018-12-31T01:09:12.991Z,100209.11
2018-12-31T01:11:39.182Z,100209.33
2018-12-31T01:14:05.348Z,100207.84
2018-12-31T01:16:31.498Z,100204.87
2018-12-31T01:18:57.693Z,100204.48
2018-12-31T01:21:23.851Z,100197.65
2018-12-31T01:23:50.054Z,100198.83
2018-12-31T01:26:16.344Z,100201.09
2018-12-31T01:28:42.496Z,100196.45
2018-12-31T01:31:08.643Z,100195.55
2018-12-31T01:33:34.823Z,100190.99
2018-12-31T01:36:01.081Z,100189.47
2018-12-31T01:38:27.338Z,100180.58
2018-12-31T01:43:25.787Z,100172.21
2018-12-31T01:45:51.935Z,100174.16
2018-12-31T01:48:18.119Z,100174.70
2018-12-31T01:50:44.278Z,100166.21
2018-12-31T01:53:10.437Z,100166.28
2018-12-31T01:55:36.620Z,100166.66
2018-12-31T02:00:50.458Z,100162.47
2018-12-31T02:03:16.615Z,100160.14
2018-12-31T02:05:42.764Z,100158.78
2018-12-31T02:08:09.023Z,100159.56
2018-12-31T02:13:42.643Z,100152.43
2018-12-31T02:16:08.895Z,100155.26
2018-12-31T02:18:35.054Z,100151.22
2018-12-31T02:21:01.246Z,100148.55
2018-12-31T02:23:27.532Z,100145.63
2018-12-31T02:25:53.651Z,100143.27
2018-12-31T02:28:19.836Z,100139.50
2018-12-31T02:30:45.995Z,100136.76
2018-12-31T02:33:12.142Z,100138.97
2018-12-31T02:35:38.332Z,100138.25
2018-12-31T02:38:04.493Z,100137.34
2018-12-31T02:40:30.648Z,100138.61
2018-12-31T02:42:56.843Z,100139.02
2018-12-31T02:45:23.000Z,100130.34
2018-12-31T02:47:49.164Z,100131.85
2018-12-31T02:50:15.445Z,100133.09
2018-12-31T02:52:41.600Z,100132.74
2018-12-31T02:55:07.770Z,100132.48
2018-12-31T02:57:33.947Z,100127.84
2018-12-31T03:00:00.279Z,100131.72
2018-12-31T03:02:28.147Z,100124.08
2018-12-31T03:04:54.347Z,100129.97
2018-12-31T03:07:20.500Z,100127.94
2018-12-31T03:09:46.657Z,100123.14
2018-12-31T03:12:12.843Z,100123.58
2018-12-31T03:14:39.000Z,100125.16
2018-12-31T03:17:05.153Z,100130.57
2018-12-31T03:19:31.345Z,100123.25
2018-12-31T03:21:57.504Z,100125.59
2018-12-31T03:24:23.659Z,100123.83
2018-12-31T03:26:49.901Z,100128.85
2018-12-31T03:29:16.053Z,100133.69
2018-12-31T03:31:42.202Z,100133.58
2018-12-31T03:34:08.491Z,100138.64
2018-12-31T03:36:34.649Z,100134.36
2018-12-31T03:39:00.805Z,100135.31
2018-12-31T03:41:26.996Z,100137.89
2018-12-31T03:43:53.156Z,100140.77
2018-12-31T03:46:19.306Z,100140.97
2018-12-31T03:48:45.486Z,100137.61
2018-12-31T03:51:11.751Z,100138.92
2018-12-31T03:53:37.903Z,100141.87
2018-12-31T03:56:04.195Z,100145.67
2018-12-31T03:58:30.453Z,100143.23
2018-12-31T04:00:56.610Z,100137.58
2018-12-31T04:03:22.797Z,100145.28
2018-12-31T04:05:48.953Z,100148.22
2018-12-31T04:08:15.103Z,100144.95
2018-12-31T04:10:41.295Z,100144.30
2018-12-31T04:13:07.453Z,100149.96
2018-12-31T04:15:33.606Z,100151.45
2018-12-31T04:17:59.797Z,100153.52
2018-12-31T04:20:25.951Z,100156.34
2018-12-31T04:22:52.102Z,100157.16
2018-12-31T04:25:18.289Z,100157.33
2018-12-31T04:27:57.089Z,100164.60
2018-12-31T04:30:23.305Z,100162.27
2018-12-31T04:32:49.526Z,100170.20
2018-12-31T04:35:15.686Z,100169.72
2018-12-31T04:37:41.876Z,100170.67
2018-12-31T04:40:08.025Z,100177.33
2018-12-31T04:42:34.392Z,100178.39
2018-12-31T04:45:00.583Z,100191.19
2018-12-31T04:47:26.742Z,100202.08
2018-12-31T04:49:53.098Z,100200.30
2018-12-31T04:52:19.450Z,100206.67
2018-12-31T04:54:45.746Z,100205.89
2018-12-31T04:57:11.903Z,100210.89
2018-12-31T04:59:38.097Z,100218.88
2018-12-31T05:02:04.240Z,100217.89
2018-12-31T05:04:30.385Z,100213.89
2018-12-31T05:06:56.574Z,100220.95
2018-12-31T05:09:22.734Z,100217.56
2018-12-31T05:11:49.937Z,100218.99
2018-12-31T05:16:56.024Z,100225.62
2018-12-31T05:19:22.180Z,100228.00
2018-12-31T05:21:48.444Z,100221.11
2018-12-31T05:24:14.646Z,100224.84
2018-12-31T05:26:40.794Z,100225.59
2018-12-31T05:29:07.049Z,100227.84
2018-12-31T05:31:33.234Z,100230.95
2018-12-31T05:33:59.387Z,100225.91
2018-12-31T05:36:25.545Z,100228.14
2018-12-31T05:38:51.888Z,100228.34
2018-12-31T05:41:18.038Z,100225.52
2018-12-31T05:43:44.199Z,100224.09
2018-12-31T05:46:10.400Z,100224.55
2018-12-31T05:48:36.557Z,100224.32
2018-12-31T05:51:02.839Z,100230.81
2018-12-31T05:53:29.012Z,100226.98
2018-12-31T05:55:55.168Z,100224.97
2018-12-31T05:58:21.329Z,100223.63
2018-12-31T06:00:47.527Z,100227.67
2018-12-31T06:03:13.678Z,100231.44
2018-12-31T06:05:39.831Z,100230.27
2018-12-31T06:08:06.008Z,100230.31
2018-12-31T06:10:32.172Z,100234.19
2018-12-31T06:12:58.323Z,100236.87
2018-12-31T06:15:24.505Z,100233.28
2018-12-31T06:17:50.659Z,100236.83
2018-12-31T06:20:16.816Z,100240.57
2018-12-31T06:22:43.025Z,100246.70
2018-12-31T06:25:09.293Z,100245.25
2018-12-31T06:27:35.449Z,100247.16
2018-12-31T06:30:02.267Z,100246.23
2018-12-31T06:32:29.963Z,100247.74
2018-12-31T06:34:56.144Z,100252.75
2018-12-31T06:37:22.339Z,100245.37
2018-12-31T06:39:48.490Z,100254.89
2018-12-31T06:42:14.650Z,100254.73
2018-12-31T06:44:40.897Z,100251.66
2018-12-31T06:47:07.061Z,100254.21
2018-12-31T06:49:33.217Z,100255.59
2018-12-31T06:51:59.408Z,100251.81
2018-12-31T06:54:25.667Z,100252.01
2018-12-31T06:56:51.820Z,100250.82
2018-12-31T06:59:18.004Z,100252.72
2018-12-31T07:01:44.150Z,100253.86
2018-12-31T07:04:10.409Z,100253.98
2018-12-31T07:06:36.599Z,100252.62
2018-12-31T07:10:00.044Z,100247.66
2018-12-31T07:12:26.232Z,100247.66
2018-12-31T07:14:52.392Z,100241.78
2018-12-31T07:17:18.546Z,100246.49
2018-12-31T07:19:44.733Z,100241.45
2018-12-31T07:22:10.996Z,100239.42
2018-12-31T07:24:37.151Z,100239.95
2018-12-31T07:27:03.350Z,100245.16
2018-12-31T07:29:29.507Z,100236.08
2018-12-31T07:31:55.725Z,100236.42
2018-12-31T07:34:22.010Z,100240.13
2018-12-31T07:36:48.170Z,100239.95
2018-12-31T07:39:14.333Z,100244.31
2018-12-31T07:41:40.525Z,100241.81
2018-12-31T07:44:06.679Z,100245.50
2018-12-31T07:46:32.832Z,100241.63
2018-12-31T07:48:59.031Z,100237.05
2018-12-31T07:51:25.189Z,100241.34
2018-12-31T07:53:51.343Z,100240.39
2018-12-31T07:56:17.528Z,100240.78
2018-12-31T07:58:43.689Z,100242.80
2018-12-31T08:01:09.841Z,100243.16
2018-12-31T08:03:36.032Z,100241.33
2018-12-31T08:06:02.374Z,100239.97
2018-12-31T08:08:28.676Z,100248.86
2018-12-31T08:10:54.868Z,100245.93
2018-12-31T08:13:21.156Z,100242.59
2018-12-31T08:18:39.827Z,100243.30
2018-12-31T08:21:06.117Z,100239.12
2018-12-31T08:23:32.264Z,100241.02
2018-12-31T08:25:58.573Z,100246.11
2018-12-31T08:28:24.742Z,100244.16
2018-12-31T08:30:51.063Z,100253.86
2018-12-31T08:33:17.316Z,100253.09
2018-12-31T08:35:43.497Z,100260.81
2018-12-31T08:38:09.644Z,100256.52
2018-12-31T08:40:35.819Z,100266.49
2018-12-31T08:43:02.126Z,100263.15
2018-12-31T08:45:28.284Z,100265.70
2018-12-31T08:47:54.582Z,100260.83
2018-12-31T08:50:20.736Z,100265.47
2018-12-31T08:52:46.887Z,100260.65
2018-12-31T08:55:13.186Z,100259.82
2018-12-31T08:57:39.323Z,100255.45
2018-12-31T09:00:46.925Z,100254.37
2018-12-31T09:03:13.079Z,100253.05
2018-12-31T09:05:39.231Z,100251.29
2018-12-31T09:08:05.428Z,100249.81
2018-12-31T09:10:31.597Z,100247.20
2018-12-31T09:13:17.757Z,100251.45
2018-12-31T09:15:43.985Z,100246.66
2018-12-31T09:18:10.147Z,100245.17
2018-12-31T09:20:36.452Z,100237.87
2018-12-31T09:23:02.735Z,100236.23
2018-12-31T09:25:28.895Z,100234.72
2018-12-31T09:27:55.102Z,100235.41
2018-12-31T09:30:21.359Z,100238.72
2018-12-31T09:32:47.518Z,100240.80
2018-12-31T09:35:13.773Z,100242.21
2018-12-31T09:37:39.933Z,100236.25
2018-12-31T09:40:06.098Z,100238.34
2018-12-31T09:42:32.288Z,100239.02
2018-12-31T09:44:58.440Z,100229.20
2018-12-31T09:47:24.592Z,100233.03
2018-12-31T09:49:50.788Z,100237.44
2018-12-31T09:52:16.944Z,100231.05
2018-12-31T09:54:42.995Z,100228.01
2018-12-31T09:57:09.202Z,100229.98
2018-12-31T09:59:35.356Z,100220.94
2018-12-31T10:02:01.511Z,100214.89
2018-12-31T10:04:27.688Z,100221.39
2018-12-31T10:06:53.841Z,100221.84
2018-12-31T10:09:20.100Z,100222.44
2018-12-31T10:11:46.419Z,100222.58
2018-12-31T10:14:12.578Z,100224.14
2018-12-31T10:16:38.855Z,100213.90
2018-12-31T10:19:05.036Z,100210.55
2018-12-31T10:21:31.213Z,100212.56
2018-12-31T10:23:57.381Z,100210.77
2018-12-31T10:26:23.574Z,100206.27
2018-12-31T10:28:49.736Z,100197.64
2018-12-31T10:31:15.903Z,100201.08
2018-12-31T10:33:42.205Z,100202.16
2018-12-31T10:36:09.316Z,100192.71
2018-12-31T10:38:35.603Z,100190.30
2018-12-31T10:41:01.774Z,100188.84
2018-12-31T10:43:27.938Z,100188.18
2018-12-31T10:45:54.099Z,100185.05
2018-12-31T10:48:20.298Z,100177.80
2018-12-31T10:50:46.457Z,100178.59
2018-12-31T10:53:12.615Z,100178.45
2018-12-31T10:55:38.930Z,100182.45
2018-12-31T10:58:05.086Z,100173.94
2018-12-31T11:00:31.251Z,100175.27
2018-12-31T11:02:57.442Z,100168.95
2018-12-31T11:05:23.699Z,100167.92
2018-12-31T11:07:49.862Z,100174.08
2018-12-31T11:10:16.193Z,100166.02
2018-12-31T11:12:42.489Z,100166.53
2018-12-31T11:15:08.990Z,100160.69
2018-12-31T11:17:35.203Z,100157.99
2018-12-31T11:20:01.362Z,100155.77
2018-12-31T11:22:27.624Z,100155.98
2018-12-31T11:24:53.808Z,100159.30
2018-12-31T11:27:19.968Z,100162.54
2018-12-31T11:29:46.127Z,100151.24
2018-12-31T11:32:12.315Z,100150.79
2018-12-31T11:34:38.476Z,100154.91
2018-12-31T11:37:04.843Z,100149.84
2018-12-31T11:39:31.041Z,100153.39
2018-12-31T11:41:58.135Z,100152.20
2018-12-31T11:44:25.252Z,100154.85
2018-12-31T11:46:51.461Z,100154.61
2018-12-31T11:49:17.732Z,100151.80
2018-12-31T11:51:43.892Z,100153.52
2018-12-31T11:54:10.083Z,100153.38
2018-12-31T11:56:36.233Z,100146.29
2018-12-31T11:59:02.495Z,100150.38
2018-12-31T12:01:28.802Z,100153.03
2018-12-31T12:03:54.963Z,100152.55
2018-12-31T12:06:21.239Z,100155.98
2018-12-31T12:08:47.539Z,100163.98
2018-12-31T12:11:13.704Z,100152.26
2018-12-31T12:13:39.864Z,100154.31
2018-12-31T12:16:06.204Z,100167.83
2018-12-31T12:18:32.356Z,100162.53
2018-12-31T12:20:58.523Z,100162.11
2018-12-31T12:23:24.763Z,100161.26
2018-12-31T12:25:52.835Z,100157.06
2018-12-31T12:28:19.008Z,100165.13
2018-12-31T12:30:45.291Z,100156.50
2018-12-31T12:33:11.452Z,100155.86
2018-12-31T12:35:37.715Z,100153.29
2018-12-31T12:38:04.021Z,100151.88
2018-12-31T12:40:32.078Z,100154.67
2018-12-31T12:42:58.236Z,100150.30
2018-12-31T12:45:24.702Z,100163.97
2018-12-31T12:47:50.864Z,100164.02
2018-12-31T12:50:17.029Z,100160.30
2018-12-31T12:52:43.333Z,100166.13
2018-12-31T12:55:11.394Z,100168.31
2018-12-31T12:57:37.555Z,100157.19
2018-12-31T13:00:45.170Z,100168.17
2018-12-31T13:03:11.337Z,100159.44
2018-12-31T13:05:37.502Z,100172.31
2018-12-31T13:08:03.796Z,100167.52
2018-12-31T13:10:29.967Z,100174.86
2018-12-31T13:12:56.134Z,100174.41
2018-12-31T13:15:29.684Z,100171.53
2018-12-31T13:17:55.839Z,100176.46
2018-12-31T13:20:21.998Z,100174.73
2018-12-31T13:22:48.292Z,100181.98
2018-12-31T13:25:14.459Z,100185.82
2018-12-31T13:27:40.621Z,100184.47
2018-12-31T13:30:07.115Z,100189.57
2018-12-31T13:32:33.382Z,100186.81
2018-12-31T13:34:59.530Z,100184.61
2018-12-31T13:37:25.723Z,100180.98
2018-12-31T13:39:51.890Z,100185.52
2018-12-31T13:42:18.051Z,100187.90
2018-12-31T13:44:44.321Z,100189.31
2018-12-31T13:47:10.488Z,100193.44
2018-12-31T13:49:36.792Z,100194.03
2018-12-31T13:52:03.104Z,100199.20
2018-12-31T13:54:29.270Z,100199.78
2018-12-31T13:56:55.440Z,100198.52
2018-12-31T13:59:21.764Z,100198.91
2018-12-31T14:01:48.272Z,100205.27
2018-12-31T14:04:14.582Z,100206.20
2018-12-31T14:06:40.783Z,100207.00
2018-12-31T14:09:06.960Z,100211.33
2018-12-31T14:11:53.017Z,100214.90
2018-12-31T14:14:19.172Z,100217.75
2018-12-31T14:16:45.339Z,100221.30
2018-12-31T14:19:11.539Z,100217.64
2018-12-31T14:21:37.850Z,100223.34
2018-12-31T14:24:04.188Z,100218.87
2018-12-31T14:26:52.019Z,100221.64
2018-12-31T14:29:18.180Z,100221.91
2018-12-31T14:31:44.432Z,100228.67
2018-12-31T14:34:10.817Z,100233.88
2018-12-31T14:36:37.008Z,100235.27
2018-12-31T14:39:44.707Z,100235.47
2018-12-31T14:42:10.966Z,100239.03
2018-12-31T14:44:37.315Z,100237.11
2018-12-31T14:47:03.517Z,100238.59
2018-12-31T14:49:29.679Z,100232.39
2018-12-31T14:51:55.833Z,100242.45
2018-12-31T14:54:22.048Z,100248.86
2018-12-31T14:56:48.203Z,100250.87
2018-12-31T14:59:36.045Z,100249.88
2018-12-31T15:02:02.233Z,100249.36
2018-12-31T15:04:28.383Z,100257.25
2018-12-31T15:06:54.580Z,100260.55
2018-12-31T15:09:20.735Z,100266.85
2018-12-31T15:11:46.885Z,100268.58
2018-12-31T15:14:13.178Z,100277.16
2018-12-31T15:16:39.447Z,100284.48
2018-12-31T15:19:05.599Z,100286.48
2018-12-31T15:21:31.785Z,100290.05
2018-12-31T15:23:58.057Z,100289.79
2018-12-31T15:26:24.317Z,100294.69
2018-12-31T15:28:50.500Z,100300.17
2018-12-31T15:31:16.652Z,100299.07
2018-12-31T15:33:42.805Z,100301.78
2018-12-31T15:36:08.988Z,100303.20
2018-12-31T15:38:35.138Z,100305.22
2018-12-31T15:41:03.322Z,100305.74
2018-12-31T15:43:29.544Z,100310.10
2018-12-31T15:45:55.704Z,100311.11
2018-12-31T15:48:21.859Z,100309.77
2018-12-31T15:50:48.054Z,100308.78
2018-12-31T15:53:14.314Z,100317.77
2018-12-31T15:55:40.471Z,100319.67
2018-12-31T15:58:06.659Z,100320.45
2018-12-31T16:00:32.811Z,100329.14
2018-12-31T16:02:58.967Z,100332.51
2018-12-31T16:05:25.161Z,100325.94
2018-12-31T16:07:51.219Z,100329.95
2018-12-31T16:10:17.475Z,100335.18
2018-12-31T16:12:45.675Z,100341.77
2018-12-31T16:15:11.833Z,100342.47
2018-12-31T16:17:38.034Z,100348.91
2018-12-31T16:20:45.625Z,100347.48
2018-12-31T16:23:11.793Z,100346.92
2018-12-31T16:25:38.071Z,100356.95
2018-12-31T16:28:04.287Z,100350.98
2018-12-31T16:30:30.443Z,100354.27
2018-12-31T16:32:56.602Z,100351.55
2018-12-31T16:35:22.784Z,100353.62
2018-12-31T16:37:48.937Z,100353.53
2018-12-31T16:40:15.100Z,100352.47
2018-12-31T16:42:41.291Z,100360.55
2018-12-31T16:45:07.621Z,100358.52
2018-12-31T16:47:33.757Z,100364.84
2018-12-31T16:50:00.167Z,100367.23
2018-12-31T16:52:26.310Z,100366.70
2018-12-31T16:54:52.465Z,100375.11
2018-12-31T16:57:18.656Z,100378.12
2018-12-31T16:59:44.907Z,100384.27
2018-12-31T17:02:11.069Z,100388.79
2018-12-31T17:04:39.171Z,100395.20
2018-12-31T17:07:05.323Z,100390.97
2018-12-31T17:09:31.592Z,100394.13
2018-12-31T17:11:57.809Z,100398.08
2018-12-31T17:14:24.084Z,100404.78
2018-12-31T17:16:50.248Z,100404.34
2018-12-31T17:19:16.431Z,100410.19
2018-12-31T17:21:43.103Z,100415.52
2018-12-31T17:24:09.267Z,100414.41
2018-12-31T17:26:35.451Z,100424.20
2018-12-31T17:29:01.600Z,100420.36
2018-12-31T17:31:27.758Z,100420.93
2018-12-31T17:33:53.967Z,100428.84
2018-12-31T17:36:22.140Z,100426.54
2018-12-31T17:38:49.062Z,100432.95
2018-12-31T17:41:36.248Z,100434.30
2018-12-31T17:44:02.408Z,100434.22
2018-12-31T17:49:16.348Z,100442.30
2018-12-31T17:51:42.511Z,100443.91
2018-12-31T17:54:08.673Z,100446.64
2018-12-31T17:56:34.879Z,100450.39
2018-12-31T17:59:02.949Z,100447.11
2018-12-31T18:01:29.103Z,100449.45
2018-12-31T18:03:55.296Z,100455.19
2018-12-31T18:06:21.455Z,100453.86
2018-12-31T18:08:47.620Z,100450.48
2018-12-31T18:11:13.921Z,100450.91
2018-12-31T18:13:41.978Z,100454.47
2018-12-31T18:16:08.138Z,100460.03
2018-12-31T18:18:34.325Z,100460.18
2018-12-31T18:21:00.492Z,100457.44
2018-12-31T18:23:26.653Z,100464.41
2018-12-31T18:25:52.850Z,100466.25
2018-12-31T18:28:19.106Z,100455.62
2018-12-31T18:30:45.347Z,100463.59
2018-12-31T18:33:11.682Z,100463.66
2018-12-31T18:35:37.839Z,100470.55
2018-12-31T18:38:03.997Z,100469.97
2018-12-31T18:40:30.286Z,100470.66
2018-12-31T18:42:56.448Z,100476.02
2018-12-31T18:45:22.807Z,100478.42
2018-12-31T18:47:49.039Z,100476.31
2018-12-31T18:50:15.292Z,100476.45
2018-12-31T18:52:41.454Z,100469.97
2018-12-31T18:55:07.655Z,100477.14
2018-12-31T18:57:33.812Z,100473.12
2018-12-31T19:00:01.868Z,100472.92
2018-12-31T19:02:28.074Z,100478.61
2018-12-31T19:04:54.237Z,100478.27
2018-12-31T19:07:20.397Z,100481.58
2018-12-31T19:09:46.586Z,100481.58
2018-12-31T19:12:12.852Z,100476.56
2018-12-31T19:14:39.007Z,100478.70
2018-12-31T19:17:05.196Z,100484.41
2018-12-31T19:19:31.346Z,100494.05
2018-12-31T19:21:57.512Z,100482.49
2018-12-31T19:24:23.688Z,100488.05
2018-12-31T19:26:49.838Z,100494.19
2018-12-31T19:29:15.988Z,100489.41
2018-12-31T19:31:44.293Z,100491.99
2018-12-31T19:34:12.139Z,100497.08
2018-12-31T19:36:38.294Z,100503.84
2018-12-31T19:39:45.918Z,100496.30
2018-12-31T19:42:12.097Z,100496.16
2018-12-31T19:44:38.257Z,100499.25
2018-12-31T19:47:04.557Z,100508.05
2018-12-31T19:49:30.723Z,100496.99
2018-12-31T19:51:56.883Z,100501.66
2018-12-31T19:54:25.064Z,100508.11
2018-12-31T19:56:51.225Z,100495.10
2018-12-31T19:59:17.375Z,100498.68
2018-12-31T20:01:43.575Z,100502.92
2018-12-31T20:04:09.741Z,100506.94
2018-12-31T20:06:35.914Z,100505.23
2018-12-31T20:09:57.762Z,100504.46
2018-12-31T20:12:13.473Z,100501.14
2018-12-31T20:14:42.443Z,100506.53
2018-12-31T20:17:08.767Z,100511.13
2018-12-31T20:19:34.930Z,100507.05
2018-12-31T20:24:53.740Z,100512.52
2018-12-31T20:27:19.901Z,100514.68
2018-12-31T20:29:46.072Z,100518.03
2018-12-31T20:32:12.268Z,100515.59
2018-12-31T20:34:38.441Z,100519.30
2018-12-31T20:37:04.596Z,100517.64
2018-12-31T20:39:30.890Z,100514.73
2018-12-31T20:41:57.054Z,100522.92
2018-12-31T20:44:23.216Z,100522.67
2018-12-31T20:46:49.414Z,100522.41
2018-12-31T20:49:15.582Z,100523.41
2018-12-31T20:51:41.757Z,100525.17
2018-12-31T20:54:07.977Z,100527.45
2018-12-31T20:56:34.142Z,100524.22
2018-12-31T20:59:00.401Z,100527.15
2018-12-31T21:01:26.797Z,100529.45
2018-12-31T21:03:52.933Z,100530.45
2018-12-31T21:06:19.088Z,100531.53
2018-12-31T21:08:45.272Z,100526.44
2018-12-31T21:11:11.440Z,100527.00
2018-12-31T21:13:37.595Z,100529.16
2018-12-31T21:16:05.487Z,100530.08
2018-12-31T21:18:31.843Z,100530.94
2018-12-31T21:20:58.022Z,100525.60
2018-12-31T21:23:24.293Z,100534.75
2018-12-31T21:25:50.452Z,100538.86
2018-12-31T21:28:16.613Z,100540.58
2018-12-31T21:30:42.814Z,100544.84
2018-12-31T21:33:10.867Z,100536.71
2018-12-31T21:35:37.027Z,100543.72
2018-12-31T21:38:03.326Z,100539.95
2018-12-31T21:40:29.490Z,100545.80
2018-12-31T21:42:55.654Z,100544.84
2018-12-31T21:45:21.969Z,100551.08
2018-12-31T21:47:48.229Z,100547.31
2018-12-31T21:50:27.844Z,100556.51
2018-12-31T21:52:54.014Z,100555.80
2018-12-31T21:55:20.165Z,100562.48
2018-12-31T21:57:46.362Z,100557.05
2018-12-31T22:00:12.512Z,100557.16
2018-12-31T22:02:40.575Z,100557.67
2018-12-31T22:05:06.761Z,100562.48
2018-12-31T22:07:32.914Z,100565.56
2018-12-31T22:09:59.077Z,100556.95
2018-12-31T22:12:25.276Z,100571.12
2018-12-31T22:14:51.428Z,100570.03
2018-12-31T22:17:17.583Z,100574.80
2018-12-31T22:19:43.781Z,100573.20
2018-12-31T22:22:09.944Z,100578.91
2018-12-31T22:24:36.199Z,100581.30
2018-12-31T22:27:02.488Z,100579.97
2018-12-31T22:29:28.649Z,100581.19
2018-12-31T22:31:54.809Z,100580.21
2018-12-31T22:34:21.202Z,100582.27
2018-12-31T22:36:47.351Z,100587.20
2018-12-31T22:39:13.505Z,100583.44
2018-12-31T22:41:39.698Z,100584.77
2018-12-31T22:44:05.855Z,100584.66
2018-12-31T22:46:32.003Z,100588.66
2018-12-31T22:48:58.398Z,100585.48
2018-12-31T22:51:37.910Z,100588.16
2018-12-31T22:54:04.098Z,100584.53
2018-12-31T22:56:30.254Z,100584.77
2018-12-31T22:58:56.428Z,100585.45
2018-12-31T23:01:22.733Z,100582.55
2018-12-31T23:03:48.888Z,100596.13
2018-12-31T23:06:15.041Z,100596.66
2018-12-31T23:08:41.255Z,100589.75
2018-12-31T23:11:07.413Z,100596.66
2018-12-31T23:13:33.567Z,100596.45
2018-12-31T23:15:59.757Z,100599.61
2018-12-31T23:18:26.109Z,100597.94
2018-12-31T23:20:52.276Z,100597.94
2018-12-31T23:23:18.597Z,100594.56
2018-12-31T23:25:44.756Z,100600.73
2018-12-31T23:28:11.800Z,100598.30
2018-12-31T23:30:37.999Z,100594.31
2018-12-31T23:33:04.279Z,100600.25
2018-12-31T23:35:31.313Z,100599.05
2018-12-31T23:37:58.632Z,100592.00
2018-12-31T23:40:24.790Z,100602.51
2018-12-31T23:42:50.949Z,100602.58
2018-12-31T23:45:17.136Z,100608.39
2018-12-31T23:47:43.293Z,100609.83
2018-12-31T23:50:11.344Z,100613.73
2018-12-31T23:52:37.547Z,100610.81
2018-12-31T23:58:17.533Z,100627.94
